Time;durP1;ratioP1;P1;durP2;ratioP2;P2;SDS_P1;SDS_P2;PMS_P1;PMS_P2;Temp;Humidity;BMP_temperature;BMP_pressure;BME280_temperature;BME280_humidity;BME280_pressure;Samples;Min_cycle;Max_cycle;Signal;HPM_P1;HPM_P2
2023/06/06 00:00:15;;;;;;;10.77;8.70;;;;;;;17.29;80.77;99137.66;5147062;27;20303;-73
2023/06/06 00:02:44;;;;;;;8.77;7.82;;;;;;;17.28;80.67;99143.16;5147393;27;20271;-72
2023/06/06 00:05:13;;;;;;;9.80;8.20;;;;;;;17.28;80.71;99135.97;5147351;27;20125;-73
2023/06/06 00:07:40;;;;;;;9.55;8.65;;;;;;;17.28;80.35;99137.78;5146768;27;20100;-72
2023/06/06 00:10:09;;;;;;;8.75;7.72;;;;;;;17.13;80.51;99113.16;5147110;27;20168;-73
2023/06/06 00:12:37;;;;;;;8.73;7.82;;;;;;;17.25;80.43;99138.06;5146990;27;20190;-73
2023/06/06 00:15:05;;;;;;;9.50;8.43;;;;;;;17.26;80.36;99135.25;5146693;27;20074;-73
2023/06/06 00:17:32;;;;;;;9.50;8.48;;;;;;;17.25;80.56;99143.41;5147249;27;20035;-73
2023/06/06 00:20:01;;;;;;;10.10;9.10;;;;;;;17.08;80.16;99098.47;5146649;28;20298;-73
2023/06/06 00:22:28;;;;;;;9.85;8.85;;;;;;;17.24;80.60;99129.19;5146960;27;20050;-73
2023/06/06 00:24:55;;;;;;;9.82;8.80;;;;;;;16.91;80.46;99076.66;5147120;28;20145;-73
2023/06/06 00:27:22;;;;;;;10.20;9.20;;;;;;;17.25;80.68;99128.19;5147131;28;20049;-73
2023/06/06 00:29:49;;;;;;;9.60;8.60;;;;;;;17.24;80.49;99125.66;5146670;27;20063;-73
2023/06/06 00:32:15;;;;;;;9.43;8.43;;;;;;;17.23;80.96;99126.63;5147003;28;20039;-73
2023/06/06 00:34:42;;;;;;;8.95;8.05;;;;;;;17.24;80.75;99128.31;5147084;28;20035;-73
2023/06/06 00:37:10;;;;;;;9.07;8.18;;;;;;;17.22;80.41;99125.78;5146444;28;20076;-72
2023/06/06 00:39:37;;;;;;;8.15;7.30;;;;;;;17.21;80.70;99120.56;5146499;28;20084;-73
2023/06/06 00:42:04;;;;;;;9.07;7.95;;;;;;;17.22;80.70;99122.25;5146629;28;20092;-73
2023/06/06 00:44:30;;;;;;;10.13;7.68;;;;;;;17.17;80.17;99127.97;5146421;28;20211;-73
2023/06/06 00:46:57;;;;;;;7.97;7.18;;;;;;;17.02;80.28;99094.47;5147005;28;20039;-73
2023/06/06 00:49:25;;;;;;;9.27;8.20;;;;;;;17.16;80.75;99112.03;5149398;27;20049;-73
2023/06/06 00:51:52;;;;;;;10.05;8.52;;;;;;;17.14;80.72;99111.31;5151010;27;20047;-73
2023/06/06 00:54:20;;;;;;;9.18;8.25;;;;;;;17.15;80.42;99115.69;5149461;27;20039;-73
2023/06/06 00:56:50;;;;;;;9.00;8.10;;;;;;;17.13;80.65;99123.88;5150416;27;20049;-73
2023/06/06 00:59:18;;;;;;;9.05;8.00;;;;;;;17.12;80.90;99116.81;5150292;27;20047;-73
2023/06/06 01:01:47;;;;;;;9.15;8.23;;;;;;;17.10;80.51;99105.38;5150356;27;20299;-73
2023/06/06 01:04:15;;;;;;;10.50;7.63;;;;;;;17.11;80.52;99116.94;5149421;27;20045;-73
2023/06/06 01:06:42;;;;;;;8.25;7.45;;;;;;;17.10;80.84;99118.78;5150253;27;20262;-72
2023/06/06 01:09:12;;;;;;;9.30;7.88;;;;;;;17.09;80.88;99113.53;5149342;27;20237;-73
2023/06/06 01:11:51;;;;;;;8.82;7.20;;;;;;;17.07;80.90;99110.16;5150145;27;20061;-73
2023/06/06 01:14:24;;;;;;;9.80;7.90;;;;;;;17.05;80.69;99109.44;5150289;27;20043;-73
2023/06/06 01:16:57;;;;;;;9.25;8.32;;;;;;;16.42;80.48;99004.19;5150595;27;20043;-73
2023/06/06 01:19:29;;;;;;;10.05;8.38;;;;;;;17.02;80.70;99110.53;5150247;27;20055;-73
2023/06/06 01:21:58;;;;;;;9.00;7.45;;;;;;;17.03;80.63;99108.72;5150217;27;20049;-73
2023/06/06 01:24:27;;;;;;;9.80;8.80;;;;;;;15.07;80.54;98780.34;5150155;27;20035;-73
2023/06/06 01:26:54;;;;;;;7.80;6.90;;;;;;;17.02;80.61;99115.91;5150386;27;20325;-73
2023/06/06 01:29:21;;;;;;;8.95;8.05;;;;;;;16.89;80.36;99086.66;5150028;27;20050;-73
2023/06/06 01:31:56;;;;;;;10.75;8.55;;;;;;;17.03;80.69;99111.41;5149996;27;20229;-73
2023/06/06 01:34:30;;;;;;;9.15;8.25;;;;;;;17.03;80.63;99116.75;5149905;27;20047;-73
2023/06/06 01:37:08;;;;;;;8.57;7.78;;;;;;;17.03;80.94;99109.56;5149176;27;20207;-73
2023/06/06 01:39:39;;;;;;;8.30;7.50;;;;;;;16.88;80.91;99084.94;5150151;27;20035;-73
2023/06/06 01:42:08;;;;;;;9.80;8.70;;;;;;;17.03;80.74;99103.38;5149661;27;20039;-73
2023/06/06 01:44:36;;;;;;;9.75;8.75;;;;;;;17.04;81.04;99105.06;5149319;27;20051;-73
2023/06/06 01:47:03;;;;;;;8.18;7.38;;;;;;;16.59;80.92;99033.03;5149417;27;20047;-73
2023/06/06 01:49:30;;;;;;;9.85;8.23;;;;;;;17.05;80.90;99094.22;5148572;27;20027;-73
2023/06/06 01:51:59;;;;;;;9.80;8.25;;;;;;;17.07;81.03;99100.28;5149344;27;20087;-73
2023/06/06 01:54:26;;;;;;;8.90;7.90;;;;;;;17.07;80.72;99094.09;5149238;27;20039;-73
2023/06/06 01:56:53;;;;;;;9.07;8.18;;;;;;;17.07;80.65;99089.59;5148404;27;20038;-73
2023/06/06 01:59:19;;;;;;;9.32;8.13;;;;;;;17.04;80.68;99084.50;5148773;27;20302;-73
2023/06/06 02:01:46;;;;;;;9.10;8.18;;;;;;;17.04;80.33;99084.50;5148655;27;20050;-73
2023/06/06 02:04:13;;;;;;;10.77;6.72;;;;;;;17.04;80.31;99083.63;5149166;27;20055;-73
2023/06/06 02:06:40;;;;;;;9.40;8.50;;;;;;;17.03;80.31;99087.31;5149326;27;20378;-73
2023/06/06 02:09:10;;;;;;;9.13;8.23;;;;;;;17.02;80.27;99078.41;5148249;27;20058;-73
2023/06/06 02:11:37;;;;;;;11.13;8.55;;;;;;;17.00;80.58;99086.59;5148175;27;20039;-73
2023/06/06 02:14:04;;;;;;;9.95;7.68;;;;;;;16.99;80.39;99087.56;5149435;27;20041;-73
2023/06/06 02:16:31;;;;;;;9.10;8.20;;;;;;;16.99;80.67;99076.00;5148950;27;20054;-73
2023/06/06 02:18:58;;;;;;;8.68;7.78;;;;;;;16.20;80.37;98946.34;5149459;27;20077;-73
2023/06/06 02:21:25;;;;;;;8.90;7.93;;;;;;;16.95;80.38;99075.41;5148810;27;20248;-73
2023/06/06 02:23:51;;;;;;;9.60;8.10;;;;;;;16.96;80.44;99070.91;5148704;27;20047;-73
2023/06/06 02:26:21;;;;;;;11.63;8.88;;;;;;;16.94;80.70;99065.69;5149241;27;20050;-73
2023/06/06 02:28:48;;;;;;;9.70;8.35;;;;;;;16.94;80.44;99063.03;5147785;27;20046;-73
2023/06/06 02:31:16;;;;;;;9.63;8.68;;;;;;;16.94;80.97;99068.38;5149170;27;20166;-73
2023/06/06 02:33:43;;;;;;;8.95;7.95;;;;;;;16.94;80.73;99073.72;5147618;27;20063;-73
2023/06/06 02:36:10;;;;;;;8.10;7.05;;;;;;;16.93;80.84;99074.69;5149039;27;20039;-73
2023/06/06 02:38:37;;;;;;;7.90;7.13;;;;;;;16.91;80.57;99081.16;5148732;27;20200;-73
2023/06/06 02:41:04;;;;;;;8.20;7.40;;;;;;;16.90;80.79;99074.13;5148456;27;20039;-73
2023/06/06 02:43:32;;;;;;;9.10;7.50;;;;;;;16.91;80.69;99075.81;5148541;27;20071;-73
2023/06/06 02:45:58;;;;;;;11.05;8.60;;;;;;;16.90;80.90;99072.28;5147466;27;20050;-73
2023/06/06 02:48:26;;;;;;;8.63;7.68;;;;;;;16.89;80.71;99073.28;5147415;27;20041;-73
2023/06/06 02:50:53;;;;;;;10.98;8.23;;;;;;;16.87;80.81;99072.56;5148412;27;20062;-73
2023/06/06 02:53:21;;;;;;;8.90;8.00;;;;;;;16.85;80.83;99079.00;5148350;27;20357;-73
2023/06/06 02:55:48;;;;;;;9.02;8.13;;;;;;;16.86;80.49;99072.69;5148323;27;20150;-73
2023/06/06 02:58:30;;;;;;;8.32;7.28;;;;;;;16.85;80.87;99071.84;5148588;27;20035;-73
2023/06/06 03:01:00;;;;;;;9.13;8.23;;;;;;;16.86;80.74;99073.53;5146203;27;20059;-73
2023/06/06 03:03:28;;;;;;;9.90;7.60;;;;;;;16.86;80.98;99064.66;5147126;27;20113;-73
2023/06/06 03:05:56;;;;;;;10.82;8.35;;;;;;;16.85;80.58;99063.81;5148364;27;20107;-72
2023/06/06 03:08:23;;;;;;;8.80;7.90;;;;;;;16.74;80.91;99045.16;5148132;27;20151;-73
2023/06/06 03:10:52;;;;;;;8.38;7.55;;;;;;;16.84;80.79;99059.44;5147306;27;20035;-73
2023/06/06 03:13:19;;;;;;;8.75;7.85;;;;;;;16.82;81.03;99058.72;5147636;27;20268;-73
2023/06/06 03:15:46;;;;;;;9.15;8.15;;;;;;;16.25;80.87;98977.06;5147989;27;20039;-73
2023/06/06 03:18:16;;;;;;;9.18;7.57;;;;;;;16.82;80.93;99064.06;5147919;27;20106;-73
2023/06/06 03:20:45;;;;;;;8.85;7.95;;;;;;;16.82;80.71;99056.03;5148155;27;20042;-73
2023/06/06 03:23:13;;;;;;;8.60;7.70;;;;;;;16.81;80.86;99053.50;5146673;27;20039;-73
2023/06/06 03:25:41;;;;;;;9.80;8.88;;;;;;;16.82;80.64;99052.50;5147870;27;20035;-73
2023/06/06 03:28:08;;;;;;;10.30;9.18;;;;;;;16.59;80.70;99025.00;5146517;27;20080;-73
2023/06/06 03:30:35;;;;;;;8.90;8.10;;;;;;;16.26;80.61;98968.06;5147656;27;20051;-73
2023/06/06 03:33:03;;;;;;;9.68;8.68;;;;;;;16.83;80.77;99065.75;5146331;27;20157;-73
2023/06/06 03:35:34;;;;;;;11.60;10.40;;;;;;;16.82;80.90;99064.06;5147339;27;20042;-73
2023/06/06 03:38:01;;;;;;;10.65;9.65;;;;;;;16.85;80.67;99058.44;5147808;27;20051;-73
2023/06/06 03:40:28;;;;;;;10.27;8.55;;;;;;;16.64;80.82;99028.13;5147801;27;20039;-73
2023/06/06 03:42:55;;;;;;;9.45;8.48;;;;;;;16.86;80.86;99064.66;5146930;27;20084;-73
2023/06/06 03:45:22;;;;;;;10.30;9.10;;;;;;;16.86;80.77;99067.34;5147094;27;20046;-73
2023/06/06 03:47:49;;;;;;;9.98;8.98;;;;;;;16.85;81.15;99066.47;5147342;27;20039;-73
2023/06/06 03:50:16;;;;;;;9.27;8.35;;;;;;;16.85;81.32;99065.63;5147635;27;20046;-73
2023/06/06 03:52:45;;;;;;;10.98;9.35;;;;;;;16.83;81.29;99063.09;5147308;27;20061;-73
2023/06/06 03:55:13;;;;;;;12.38;9.40;;;;;;;16.84;81.38;99069.28;5147415;27;20049;-73
2023/06/06 03:57:40;;;;;;;9.40;8.40;;;;;;;16.84;81.34;99059.44;5146152;27;20057;-73
2023/06/06 04:00:10;;;;;;;13.32;8.82;;;;;;;16.86;81.25;99067.34;5147479;27;20283;-73
2023/06/06 04:02:37;;;;;;;10.18;9.18;;;;;;;16.83;80.92;99068.44;5145991;27;20092;-73
2023/06/06 04:05:05;;;;;;;11.90;9.35;;;;;;;16.84;80.90;99069.28;5146944;27;20047;-73
2023/06/06 04:07:32;;;;;;;9.60;8.60;;;;;;;16.77;81.14;99060.94;5147334;27;20168;-73
2023/06/06 04:10:01;;;;;;;9.10;8.20;;;;;;;16.84;81.07;99070.13;5147335;27;20039;-73
2023/06/06 04:12:28;;;;;;;9.85;8.85;;;;;;;16.83;81.25;99073.78;5147056;27;20305;-73
2023/06/06 04:14:55;;;;;;;9.32;8.43;;;;;;;16.84;81.43;99074.63;5146662;27;20112;-73
2023/06/06 04:17:24;;;;;;;9.50;8.57;;;;;;;16.54;81.15;99025.41;5145856;27;20072;-73
2023/06/06 04:19:50;;;;;;;9.95;8.95;;;;;;;16.86;81.03;99078.03;5147175;27;20095;-73
2023/06/06 04:22:19;;;;;;;10.18;9.18;;;;;;;16.85;81.35;99073.66;5145701;27;20349;-73
2023/06/06 04:24:47;;;;;;;10.65;9.55;;;;;;;16.85;80.97;99069.16;5145315;28;20110;-73
2023/06/06 04:27:16;;;;;;;10.40;9.25;;;;;;;16.87;81.39;99069.88;5146574;28;20039;-72
2023/06/06 04:29:43;;;;;;;9.82;8.90;;;;;;;16.56;81.27;99027.94;5147069;28;20187;-73
2023/06/06 04:32:13;;;;;;;9.20;8.25;;;;;;;16.88;80.91;99068.91;5147064;28;20098;-73
2023/06/06 04:34:41;;;;;;;9.95;8.95;;;;;;;16.89;81.30;99067.91;5146561;27;20098;-73
2023/06/06 04:37:08;;;;;;;10.00;9.00;;;;;;;16.16;81.17;98942.22;5147009;28;20122;-73
2023/06/06 04:39:36;;;;;;;10.52;8.95;;;;;;;16.93;81.16;99071.19;5146950;28;20279;-73
2023/06/06 04:42:05;;;;;;;10.63;9.52;;;;;;;16.93;81.23;99066.69;5146677;28;20051;-73
2023/06/06 04:44:33;;;;;;;10.68;9.57;;;;;;;16.93;81.19;99072.03;5145293;28;20084;-73
2023/06/06 04:47:03;;;;;;;9.98;8.98;;;;;;;16.95;81.45;99071.91;5146335;28;20046;-73
2023/06/06 04:49:35;;;;;;;11.95;9.52;;;;;;;16.94;81.75;99076.41;5146600;28;20064;-73
2023/06/06 04:52:05;;;;;;;9.80;8.73;;;;;;;16.81;81.26;99057.03;5146942;27;20055;-72
2023/06/06 04:54:33;;;;;;;9.85;8.85;;;;;;;16.94;81.43;99075.56;5146483;28;20039;-73
2023/06/06 04:57:00;;;;;;;10.48;8.60;;;;;;;16.95;81.24;99077.25;5146523;28;20043;-73
2023/06/06 04:59:28;;;;;;;9.95;8.48;;;;;;;16.96;81.45;99078.94;5146523;28;20062;-73
2023/06/06 05:01:56;;;;;;;9.23;8.32;;;;;;;16.98;80.95;99085.03;5146199;28;20081;-73
2023/06/06 05:04:24;;;;;;;9.27;8.25;;;;;;;16.97;80.89;99081.50;5145404;28;20110;-73
2023/06/06 05:06:51;;;;;;;10.38;9.25;;;;;;;17.00;81.28;99085.72;5145312;28;20050;-73
2023/06/06 05:09:17;;;;;;;10.60;9.50;;;;;;;17.00;81.03;99078.56;5146472;28;20084;-73
2023/06/06 05:11:49;;;;;;;13.85;10.50;;;;;;;17.03;81.40;99084.63;5146783;27;20295;-73
2023/06/06 05:14:16;;;;;;;12.55;11.27;;;;;;;17.05;81.46;99085.34;5146619;27;20054;-73
2023/06/06 05:16:46;;;;;;;11.40;10.20;;;;;;;17.06;81.42;99087.88;5146080;28;20207;-73
2023/06/06 05:19:15;;;;;;;11.30;10.15;;;;;;;17.08;81.72;99077.03;5146267;28;20039;-73
2023/06/06 05:21:42;;;;;;;11.88;10.45;;;;;;;17.10;81.67;99089.31;5146326;28;20043;-73
2023/06/06 05:24:09;;;;;;;12.32;11.13;;;;;;;17.12;81.42;99089.19;5146286;28;20291;-73
2023/06/06 05:26:35;;;;;;;12.90;11.50;;;;;;;17.14;81.40;99085.41;5145894;27;20035;-73
2023/06/06 05:29:02;;;;;;;11.15;10.05;;;;;;;16.95;81.71;99053.16;5145948;28;20050;-73
2023/06/06 05:31:29;;;;;;;11.80;9.70;;;;;;;17.19;81.74;99085.84;5146133;28;20043;-73
2023/06/06 05:33:56;;;;;;;11.93;10.23;;;;;;;17.23;81.31;99086.47;5146019;27;20062;-73
2023/06/06 05:36:24;;;;;;;12.85;10.27;;;;;;;17.28;80.84;99078.88;5148918;27;20046;-73
2023/06/06 05:38:51;;;;;;;10.38;9.23;;;;;;;17.29;80.35;99089.44;5149776;27;20202;-73
2023/06/06 05:41:20;;;;;;;11.40;9.88;;;;;;;17.34;80.34;99074.81;5148596;27;20042;-73
2023/06/06 05:43:47;;;;;;;17.60;10.70;;;;;;;17.37;80.48;99075.38;5148471;27;20069;-73
2023/06/06 05:46:14;;;;;;;10.32;9.32;;;;;;;17.41;80.18;99075.97;5148495;27;20045;-73
2023/06/06 05:48:41;;;;;;;14.00;11.13;;;;;;;17.44;80.28;99073.88;5149607;27;20035;-73
2023/06/06 05:51:08;;;;;;;12.00;10.68;;;;;;;17.46;79.97;99071.91;5149845;27;20047;-73
2023/06/06 05:53:41;;;;;;;12.00;9.40;;;;;;;17.33;80.00;99047.19;5149245;27;20039;-73
2023/06/06 05:56:08;;;;;;;9.90;8.90;;;;;;;17.54;79.88;99084.63;5149548;27;20076;-73
2023/06/06 05:58:34;;;;;;;13.35;9.82;;;;;;;17.55;79.49;99084.50;5149110;27;20043;-73
2023/06/06 06:01:01;;;;;;;12.43;9.65;;;;;;;17.57;79.03;99085.19;5148190;27;20114;-73
2023/06/06 06:03:28;;;;;;;10.35;9.35;;;;;;;17.62;79.16;99087.50;5149078;27;20035;-73
2023/06/06 06:06:04;;;;;;;10.32;9.30;;;;;;;17.68;78.56;99086.13;5148819;27;20043;-73
2023/06/06 06:08:34;;;;;;;9.73;8.43;;;;;;;17.71;78.85;99093.88;5149223;27;20039;-73
2023/06/06 06:11:02;;;;;;;10.10;8.40;;;;;;;17.72;78.54;99088.38;5149457;27;20047;-73
2023/06/06 06:13:29;;;;;;;9.98;8.80;;;;;;;17.76;78.79;99091.66;5148844;27;20039;-73
2023/06/06 06:15:56;;;;;;;11.50;9.50;;;;;;;17.77;78.95;99091.50;5149003;27;20088;-73
2023/06/06 06:18:23;;;;;;;12.07;9.70;;;;;;;17.81;78.27;99087.56;5148528;27;20084;-73
2023/06/06 06:20:49;;;;;;;12.70;8.50;;;;;;;17.84;78.04;99091.81;5149330;27;20279;-73
2023/06/06 06:23:16;;;;;;;10.23;8.70;;;;;;;17.75;78.26;99079.22;5148735;27;20318;-73
2023/06/06 06:25:43;;;;;;;10.25;8.77;;;;;;;17.86;78.00;99096.06;5149132;27;20352;-73
2023/06/06 06:28:20;;;;;;;9.38;8.13;;;;;;;17.89;77.87;99094.94;5148417;27;20096;-73
2023/06/06 06:30:47;;;;;;;11.95;9.88;;;;;;;17.92;77.85;99094.66;5148880;27;20058;-73
2023/06/06 06:33:14;;;;;;;10.10;8.02;;;;;;;17.90;77.12;99088.59;5147381;27;20050;-73
2023/06/06 06:35:42;;;;;;;9.25;8.25;;;;;;;17.93;77.33;99102.56;5148321;27;20035;-73
2023/06/06 06:38:09;;;;;;;10.38;9.27;;;;;;;17.96;77.37;99109.47;5148563;27;20103;-73
2023/06/06 06:40:35;;;;;;;13.77;10.13;;;;;;;18.01;77.05;99101.03;5148154;27;20043;-73
2023/06/06 06:43:02;;;;;;;10.38;9.15;;;;;;;18.06;76.79;99101.47;5147048;27;20041;-73
2023/06/06 06:45:30;;;;;;;9.15;8.25;;;;;;;18.10;76.62;99103.72;5148013;27;20168;-73
2023/06/06 06:47:59;;;;;;;15.07;9.88;;;;;;;18.16;76.88;99096.97;5146853;27;20295;-73
2023/06/06 06:50:25;;;;;;;10.18;9.20;;;;;;;18.21;76.57;99095.56;5148140;27;20039;-73
2023/06/06 06:52:53;;;;;;;10.25;9.15;;;;;;;18.25;76.26;99096.97;5148588;27;20087;-73
2023/06/06 06:55:23;;;;;;;10.15;9.15;;;;;;;18.30;75.80;99098.38;5148536;27;20055;-73
2023/06/06 06:57:51;;;;;;;12.23;9.77;;;;;;;18.36;76.28;99104.03;5148520;27;20106;-73
2023/06/06 07:00:22;;;;;;;11.23;8.80;;;;;;;18.41;75.87;99095.56;5147085;27;20039;-73
2023/06/06 07:02:53;;;;;;;8.90;8.02;;;;;;;18.42;75.27;99108.00;5147841;27;20359;-73
2023/06/06 07:05:20;;;;;;;10.75;9.55;;;;;;;18.40;74.89;99105.47;5148328;27;20053;-73
2023/06/06 07:07:49;;;;;;;11.65;8.93;;;;;;;18.42;75.29;99106.16;5148011;27;20049;-73
2023/06/06 07:10:16;;;;;;;9.30;8.38;;;;;;;18.13;75.36;99065.91;5147336;27;20035;-73
2023/06/06 07:12:47;;;;;;;14.95;9.32;;;;;;;18.40;75.02;99092.03;5148310;27;20378;-73
2023/06/06 07:15:14;;;;;;;9.88;8.57;;;;;;;18.36;75.16;99069.16;5147511;27;20035;-73
2023/06/06 07:17:42;;;;;;;9.60;8.60;;;;;;;18.63;74.58;99102.53;5148150;27;20035;-73
2023/06/06 07:20:11;;;;;;;11.38;9.60;;;;;;;18.71;74.00;99100.00;5147728;27;20061;-73
2023/06/06 07:22:38;;;;;;;9.52;8.52;;;;;;;18.77;73.64;99099.41;5147536;27;20031;-73
2023/06/06 07:25:06;;;;;;;13.75;9.60;;;;;;;18.82;73.03;99097.16;5147561;27;20035;-73
2023/06/06 07:27:35;;;;;;;9.20;8.30;;;;;;;18.85;73.16;99088.81;5147323;27;20106;-73
2023/06/06 07:30:03;;;;;;;11.18;8.43;;;;;;;18.90;72.71;99089.22;5147377;27;20169;-73
2023/06/06 07:32:30;;;;;;;14.48;9.13;;;;;;;18.99;72.89;99103.63;5147666;27;20051;-73
2023/06/06 07:34:57;;;;;;;12.52;8.93;;;;;;;19.04;72.42;99096.84;5147170;27;20067;-73
2023/06/06 07:37:26;;;;;;;10.90;9.40;;;;;;;19.12;72.53;99098.78;5147192;27;20059;-73
2023/06/06 07:39:52;;;;;;;13.57;10.02;;;;;;;19.04;72.78;99071.81;5147441;27;20039;-73
2023/06/06 07:42:20;;;;;;;13.98;9.75;;;;;;;19.23;72.29;99104.00;5147111;27;20099;-73
2023/06/06 07:44:47;;;;;;;10.40;9.13;;;;;;;19.26;72.21;99092.97;5146627;27;20066;-73
2023/06/06 07:47:14;;;;;;;12.23;8.95;;;;;;;19.24;71.58;99103.84;5146885;27;20156;-73
2023/06/06 07:49:43;;;;;;;10.23;8.82;;;;;;;19.22;71.49;99102.31;5147154;27;20340;-74
2023/06/06 07:52:11;;;;;;;12.73;9.98;;;;;;;19.19;71.58;99097.22;5146878;27;20106;-73
2023/06/06 07:54:41;;;;;;;15.48;9.65;;;;;;;19.22;71.70;99099.63;5146685;27;20227;-73
2023/06/06 07:57:09;;;;;;;10.40;9.32;;;;;;;19.22;71.48;99099.63;5146743;27;20059;-73
2023/06/06 07:59:36;;;;;;;12.05;8.88;;;;;;;19.26;71.18;99102.88;5146809;27;20035;-73
2023/06/06 08:02:03;;;;;;;11.48;8.80;;;;;;;19.24;71.59;99100.31;5146735;27;20043;-73
2023/06/06 08:04:30;;;;;;;9.35;8.35;;;;;;;19.30;70.92;99098.88;5146871;27;20039;-74
2023/06/06 08:06:56;;;;;;;14.30;8.73;;;;;;;19.30;71.08;99099.75;5147263;27;20045;-73
2023/06/06 08:09:23;;;;;;;10.85;8.77;;;;;;;19.34;71.06;99090.38;5146807;27;20038;-73
2023/06/06 08:11:52;;;;;;;11.27;8.15;;;;;;;19.34;71.17;99097.59;5147145;27;20050;-73
2023/06/06 08:14:19;;;;;;;9.07;8.18;;;;;;;19.33;71.31;99095.91;5146371;27;20039;-74
2023/06/06 08:16:45;;;;;;;9.63;8.63;;;;;;;19.30;71.22;99098.88;5146566;27;20045;-74
2023/06/06 08:19:12;;;;;;;18.35;11.75;;;;;;;19.27;71.01;99097.34;5146851;27;20058;-74
2023/06/06 08:21:39;;;;;;;14.48;9.18;;;;;;;19.24;71.07;99090.41;5146508;28;20100;-73
2023/06/06 08:24:05;;;;;;;15.65;10.02;;;;;;;19.26;71.23;99094.81;5146450;28;20043;-73
2023/06/06 08:26:32;;;;;;;11.95;8.45;;;;;;;19.26;70.89;99092.97;5145630;28;20035;-73
2023/06/06 08:29:00;;;;;;;9.40;8.50;;;;;;;19.24;70.83;99095.78;5145544;28;20035;-73
2023/06/06 08:31:29;;;;;;;11.93;8.98;;;;;;;19.18;71.10;99090.16;5146282;28;20039;-74
2023/06/06 08:33:56;;;;;;;11.18;9.20;;;;;;;19.22;70.79;99096.94;5147278;28;20053;-74
2023/06/06 08:36:23;;;;;;;10.38;9.02;;;;;;;19.19;70.87;99099.91;5145106;28;20123;-74
2023/06/06 08:38:50;;;;;;;12.73;9.43;;;;;;;19.17;70.94;99108.13;5146526;28;20039;-74
2023/06/06 08:41:18;;;;;;;10.00;8.70;;;;;;;19.15;71.23;99107.41;5146208;28;20061;-74
2023/06/06 08:43:47;;;;;;;11.10;9.40;;;;;;;19.12;71.29;99107.69;5145943;28;20047;-74
2023/06/06 08:46:16;;;;;;;11.25;8.98;;;;;;;19.10;71.18;99108.84;5146704;28;20053;-74
2023/06/06 08:48:46;;;;;;;11.93;9.48;;;;;;;19.10;71.07;99104.31;5146144;27;20043;-74
2023/06/06 08:51:13;;;;;;;10.20;9.30;;;;;;;19.06;70.62;99110.97;5146106;28;20039;-74
2023/06/06 08:53:42;;;;;;;11.55;9.70;;;;;;;19.03;70.61;99107.72;5146315;28;20039;-73
2023/06/06 08:56:11;;;;;;;13.75;10.43;;;;;;;19.04;70.77;99098.66;5145081;28;20051;-74
2023/06/06 08:58:38;;;;;;;9.38;8.20;;;;;;;19.05;70.51;99106.59;5146324;28;20191;-73
2023/06/06 09:01:07;;;;;;;19.00;9.50;;;;;;;19.06;70.83;99116.34;5146285;28;20031;-74
2023/06/06 09:03:43;;;;;;;12.30;9.55;;;;;;;19.02;70.41;99109.56;5146001;28;20098;-74
2023/06/06 09:06:12;;;;;;;15.77;9.95;;;;;;;19.04;70.80;99109.41;5146036;28;20111;-74
2023/06/06 09:08:39;;;;;;;13.30;9.82;;;;;;;19.03;70.75;99103.19;5146158;27;20291;-74
2023/06/06 09:11:06;;;;;;;10.27;8.90;;;;;;;18.98;70.41;99093.88;5149708;27;20043;-74
2023/06/06 09:13:33;;;;;;;12.70;9.57;;;;;;;19.12;70.42;99117.59;5149965;27;20295;-73
2023/06/06 09:16:00;;;;;;;11.32;9.10;;;;;;;19.17;70.70;99109.94;5149679;27;20132;-74
2023/06/06 09:18:28;;;;;;;12.00;10.40;;;;;;;19.22;70.61;99113.06;5150104;27;20039;-73
2023/06/06 09:20:57;;;;;;;11.85;10.25;;;;;;;19.27;70.23;99104.56;5150195;27;20165;-73
2023/06/06 09:23:23;;;;;;;10.82;8.77;;;;;;;19.29;69.75;99102.56;5150070;27;20043;-73
2023/06/06 09:25:50;;;;;;;12.40;10.25;;;;;;;19.33;69.58;99096.75;5150125;27;20035;-74
2023/06/06 09:28:18;;;;;;;9.30;8.30;;;;;;;19.39;69.15;99098.03;5149591;27;20284;-74
2023/06/06 09:30:44;;;;;;;10.60;8.82;;;;;;;19.24;68.93;99065.41;5150051;27;20311;-73
2023/06/06 09:33:15;;;;;;;10.32;9.32;;;;;;;19.52;68.54;99094.03;5148692;27;20047;-73
2023/06/06 09:35:44;;;;;;;10.70;9.52;;;;;;;19.59;68.41;99094.28;5149668;27;20031;-74
2023/06/06 09:38:17;;;;;;;10.45;9.45;;;;;;;19.64;67.52;99091.16;5149748;27;20118;-73
2023/06/06 09:40:45;;;;;;;9.68;8.73;;;;;;;19.72;68.12;99088.56;5149317;27;20275;-73
2023/06/06 09:43:12;;;;;;;9.88;8.80;;;;;;;19.78;68.00;99083.44;5148160;27;20164;-73
2023/06/06 09:45:50;;;;;;;14.57;11.07;;;;;;;19.92;66.83;99081.28;5149516;27;20039;-72
2023/06/06 09:48:21;;;;;;;10.13;8.27;;;;;;;19.84;66.31;99084.72;5149390;27;20051;-73
2023/06/06 09:50:48;;;;;;;12.60;10.68;;;;;;;20.06;66.18;99092.38;5149060;27;20053;-72
2023/06/06 09:53:17;;;;;;;9.40;7.38;;;;;;;20.13;65.82;99071.94;5148289;27;20291;-72
2023/06/06 09:55:45;;;;;;;10.88;9.13;;;;;;;20.20;65.89;99074.88;5149323;27;20383;-72
2023/06/06 09:58:15;;;;;;;9.05;7.95;;;;;;;19.26;64.04;98907.59;5147978;27;20080;-73
2023/06/06 10:00:44;;;;;;;8.25;6.57;;;;;;;20.34;64.50;99068.13;5149258;27;20143;-72
2023/06/06 10:03:18;;;;;;;9.25;7.75;;;;;;;20.37;64.35;99078.59;5147972;27;20206;-72
2023/06/06 10:05:45;;;;;;;;;;;;;;;20.38;60.86;99074.91;5148448;27;20100;-74
2023/06/06 10:08:12;;;;;;;8.57;7.05;;;;;;;20.24;64.12;99035.06;5148862;27;19966;-74
2023/06/06 10:10:42;;;;;;;9.85;7.45;;;;;;;20.58;63.38;99067.53;5149398;27;20043;-73
2023/06/06 10:13:12;;;;;;;10.40;8.25;;;;;;;20.73;63.54;99064.13;5149327;27;20035;-73
2023/06/06 10:15:39;;;;;;;9.55;7.90;;;;;;;20.85;63.19;99063.88;5149133;27;20283;-73
2023/06/06 10:18:06;;;;;;;10.07;8.90;;;;;;;20.94;63.34;99065.63;5148789;27;20043;-73
2023/06/06 10:20:33;;;;;;;8.77;7.80;;;;;;;21.08;62.94;99059.69;5146804;27;20049;-73
2023/06/06 10:23:02;;;;;;;9.38;8.30;;;;;;;20.84;62.47;99003.78;5148427;27;20299;-74
2023/06/06 10:25:30;;;;;;;10.13;8.35;;;;;;;21.22;62.19;99032.16;5147639;27;20042;-73
2023/06/06 10:28:07;;;;;;;8.95;7.32;;;;;;;21.44;60.68;99053.16;5148281;27;20324;-72
2023/06/06 10:30:45;;;;;;;7.72;6.75;;;;;;;21.39;60.17;99046.56;5148812;27;20173;-74
2023/06/06 10:33:26;;;;;;;9.18;7.57;;;;;;;21.38;58.57;99055.66;5148893;27;20035;-74
2023/06/06 10:35:57;;;;;;;10.02;6.75;;;;;;;20.63;60.92;98928.75;5148400;27;20152;-73
2023/06/06 10:38:24;;;;;;;8.55;6.80;;;;;;;21.45;60.50;99054.00;5148194;27;20039;-74
2023/06/06 10:40:52;;;;;;;11.55;7.93;;;;;;;21.47;60.34;99052.00;5147562;27;20051;-74
2023/06/06 10:43:53;;;;;;;11.55;7.97;;;;;;;21.51;57.57;99055.22;5148094;27;20058;-74
2023/06/06 10:46:20;;;;;;;7.22;6.00;;;;;;;21.48;60.03;99052.84;5148654;27;20102;-74
2023/06/06 10:48:55;;;;;;;6.53;5.80;;;;;;;21.46;58.18;99051.16;5147940;27;20103;-73
2023/06/06 10:51:33;;;;;;;6.97;6.28;;;;;;;21.45;56.99;99054.00;5147829;27;20039;-73
2023/06/06 10:54:22;;;;;;;6.20;5.60;;;;;;;21.42;56.72;99049.78;5148183;27;20035;-73
2023/06/06 10:56:53;;;;;;;13.30;7.20;;;;;;;21.49;59.67;99051.84;5146409;27;20061;-73
2023/06/06 10:59:27;;;;;;;7.05;5.80;;;;;;;21.53;58.62;99045.09;5147815;27;20043;-73
2023/06/06 11:01:55;;;;;;;7.97;5.88;;;;;;;21.51;59.87;99050.66;5148114;27;20039;-73
2023/06/06 11:04:23;;;;;;;6.25;5.47;;;;;;;21.49;60.05;99046.44;5147731;27;20050;-73
2023/06/06 11:06:51;;;;;;;7.97;5.97;;;;;;;21.51;60.08;99044.44;5147955;27;20183;-73
2023/06/06 11:09:21;;;;;;;5.97;5.05;;;;;;;21.48;60.23;99042.06;5147781;27;20046;-74
2023/06/06 11:11:48;;;;;;;7.00;5.95;;;;;;;;;;5147940;27;20077;-73
2023/06/06 11:14:15;;;;;;;14.73;7.90;;;;;;;21.53;60.17;99045.09;5148143;27;20062;-74
2023/06/06 11:17:14;;;;;;;8.63;6.82;;;;;;;21.50;57.56;99048.13;5147766;27;20183;-74
2023/06/06 11:19:43;;;;;;;10.07;7.78;;;;;;;21.47;60.13;99043.91;5148021;27;20050;-73
2023/06/06 11:22:22;;;;;;;10.95;8.32;;;;;;;21.47;57.86;99043.91;5147574;27;20112;-74
2023/06/06 11:24:49;;;;;;;9.57;7.80;;;;;;;21.45;60.00;99037.81;5147484;27;20047;-73
2023/06/06 11:27:17;;;;;;;9.95;7.43;;;;;;;21.46;59.85;99042.22;5147909;27;20084;-74
2023/06/06 11:29:45;;;;;;;10.10;7.75;;;;;;;21.48;60.30;99040.19;5147999;27;20046;-73
2023/06/06 11:32:14;;;;;;;8.68;6.90;;;;;;;21.49;60.13;99039.19;5146101;27;20042;-74
2023/06/06 11:34:41;;;;;;;11.55;7.78;;;;;;;21.50;59.92;99038.19;5146338;27;20054;-74